sensor_id;sensor_type;location;lat;lon;timestamp;P1;durP1;ratioP1;P2;durP2;ratioP2
13571;SDS011;6857;53.484;10.216;2023-02-12T00:00:30;17.10;;;8.63;;
13571;SDS011;6857;53.484;10.216;2023-02-12T00:02:56;18.20;;;8.93;;
13571;SDS011;6857;53.484;10.216;2023-02-12T00:05:21;16.57;;;8.00;;
13571;SDS011;6857;53.484;10.216;2023-02-12T00:07:47;14.97;;;7.57;;
13571;SDS011;6857;53.484;10.216;2023-02-12T00:10:12;13.90;;;7.17;;
13571;SDS011;6857;53.484;10.216;2023-02-12T00:12:38;12.20;;;6.30;;
13571;SDS011;6857;53.484;10.216;2023-02-12T00:15:04;14.67;;;6.27;;
13571;SDS011;6857;53.484;10.216;2023-02-12T00:17:30;13.30;;;6.97;;
13571;SDS011;6857;53.484;10.216;2023-02-12T00:19:55;11.97;;;6.77;;
13571;SDS011;6857;53.484;10.216;2023-02-12T00:22:21;13.47;;;6.63;;
13571;SDS011;6857;53.484;10.216;2023-02-12T00:24:46;10.33;;;6.10;;
13571;SDS011;6857;53.484;10.216;2023-02-12T00:27:12;13.23;;;6.73;;
13571;SDS011;6857;53.484;10.216;2023-02-12T00:29:37;10.80;;;6.40;;
13571;SDS011;6857;53.484;10.216;2023-02-12T00:32:03;9.50;;;5.63;;
13571;SDS011;6857;53.484;10.216;2023-02-12T00:34:28;11.20;;;6.27;;
13571;SDS011;6857;53.484;10.216;2023-02-12T00:36:54;7.73;;;5.20;;
13571;SDS011;6857;53.484;10.216;2023-02-12T00:39:19;7.67;;;4.60;;
13571;SDS011;6857;53.484;10.216;2023-02-12T00:41:45;8.90;;;4.00;;
13571;SDS011;6857;53.484;10.216;2023-02-12T00:44:10;7.00;;;3.97;;
13571;SDS011;6857;53.484;10.216;2023-02-12T00:46:36;7.10;;;4.17;;
13571;SDS011;6857;53.484;10.216;2023-02-12T00:49:01;6.50;;;4.27;;
13571;SDS011;6857;53.484;10.216;2023-02-12T00:51:27;8.73;;;4.50;;
13571;SDS011;6857;53.484;10.216;2023-02-12T00:53:53;8.33;;;4.43;;
13571;SDS011;6857;53.484;10.216;2023-02-12T00:56:19;8.13;;;4.43;;
13571;SDS011;6857;53.484;10.216;2023-02-12T00:58:44;5.80;;;4.50;;
13571;SDS011;6857;53.484;10.216;2023-02-12T01:01:10;8.17;;;4.67;;
13571;SDS011;6857;53.484;10.216;2023-02-12T01:03:35;7.20;;;4.67;;
13571;SDS011;6857;53.484;10.216;2023-02-12T01:06:02;9.30;;;4.97;;
13571;SDS011;6857;53.484;10.216;2023-02-12T01:08:28;10.97;;;5.57;;
13571;SDS011;6857;53.484;10.216;2023-02-12T01:10:58;11.53;;;6.80;;
13571;SDS011;6857;53.484;10.216;2023-02-12T01:13:25;10.33;;;6.30;;
13571;SDS011;6857;53.484;10.216;2023-02-12T01:16:04;10.53;;;6.70;;
13571;SDS011;6857;53.484;10.216;2023-02-12T01:18:39;11.00;;;6.57;;
13571;SDS011;6857;53.484;10.216;2023-02-12T01:21:12;9.87;;;6.17;;
13571;SDS011;6857;53.484;10.216;2023-02-12T01:23:40;9.27;;;5.77;;
13571;SDS011;6857;53.484;10.216;2023-02-12T01:26:05;9.67;;;6.43;;
13571;SDS011;6857;53.484;10.216;2023-02-12T01:28:34;9.30;;;6.50;;
13571;SDS011;6857;53.484;10.216;2023-02-12T01:31:00;9.37;;;7.00;;
13571;SDS011;6857;53.484;10.216;2023-02-12T01:33:28;11.03;;;7.17;;
13571;SDS011;6857;53.484;10.216;2023-02-12T01:35:54;8.83;;;6.60;;
13571;SDS011;6857;53.484;10.216;2023-02-12T01:38:20;9.90;;;6.53;;
13571;SDS011;6857;53.484;10.216;2023-02-12T01:40:46;7.63;;;5.77;;
13571;SDS011;6857;53.484;10.216;2023-02-12T01:43:11;8.50;;;5.37;;
13571;SDS011;6857;53.484;10.216;2023-02-12T01:48:13;10.13;;;5.57;;
13571;SDS011;6857;53.484;10.216;2023-02-12T01:50:41;8.47;;;5.50;;
13571;SDS011;6857;53.484;10.216;2023-02-12T01:53:08;8.43;;;5.80;;
13571;SDS011;6857;53.484;10.216;2023-02-12T01:55:34;8.70;;;5.43;;
13571;SDS011;6857;53.484;10.216;2023-02-12T01:58:00;8.90;;;5.70;;
13571;SDS011;6857;53.484;10.216;2023-02-12T02:00:26;9.47;;;5.60;;
13571;SDS011;6857;53.484;10.216;2023-02-12T02:02:52;9.13;;;5.50;;
13571;SDS011;6857;53.484;10.216;2023-02-12T02:06:08;9.77;;;5.47;;
13571;SDS011;6857;53.484;10.216;2023-02-12T02:08:11;9.03;;;5.87;;
13571;SDS011;6857;53.484;10.216;2023-02-12T02:10:37;8.27;;;5.60;;
13571;SDS011;6857;53.484;10.216;2023-02-12T02:13:03;8.80;;;5.23;;
13571;SDS011;6857;53.484;10.216;2023-02-12T02:15:48;9.20;;;5.07;;
13571;SDS011;6857;53.484;10.216;2023-02-12T02:19:05;9.33;;;5.40;;
13571;SDS011;6857;53.484;10.216;2023-02-12T02:27:01;9.23;;;5.23;;
13571;SDS011;6857;53.484;10.216;2023-02-12T02:32:31;8.80;;;5.30;;
13571;SDS011;6857;53.484;10.216;2023-02-12T02:35:09;11.00;;;5.20;;
13571;SDS011;6857;53.484;10.216;2023-02-12T02:37:59;10.17;;;5.53;;
13571;SDS011;6857;53.484;10.216;2023-02-12T02:40:50;9.50;;;4.83;;
13571;SDS011;6857;53.484;10.216;2023-02-12T02:43:27;8.00;;;4.93;;
13571;SDS011;6857;53.484;10.216;2023-02-12T02:46:05;8.00;;;5.23;;
13571;SDS011;6857;53.484;10.216;2023-02-12T02:48:39;7.53;;;5.17;;
13571;SDS011;6857;53.484;10.216;2023-02-12T02:51:11;9.27;;;5.10;;
13571;SDS011;6857;53.484;10.216;2023-02-12T02:53:45;9.77;;;5.87;;
13571;SDS011;6857;53.484;10.216;2023-02-12T02:56:16;9.63;;;5.77;;
13571;SDS011;6857;53.484;10.216;2023-02-12T02:58:50;9.07;;;5.27;;
13571;SDS011;6857;53.484;10.216;2023-02-12T03:01:21;8.93;;;5.53;;
13571;SDS011;6857;53.484;10.216;2023-02-12T03:03:55;10.43;;;5.47;;
13571;SDS011;6857;53.484;10.216;2023-02-12T03:09:25;12.70;;;6.60;;
13571;SDS011;6857;53.484;10.216;2023-02-12T03:11:58;14.13;;;7.60;;
13571;SDS011;6857;53.484;10.216;2023-02-12T03:14:33;12.77;;;7.13;;
13571;SDS011;6857;53.484;10.216;2023-02-12T03:20:04;10.13;;;6.00;;
13571;SDS011;6857;53.484;10.216;2023-02-12T03:22:43;9.33;;;5.43;;
13571;SDS011;6857;53.484;10.216;2023-02-12T03:25:25;9.43;;;5.70;;
13571;SDS011;6857;53.484;10.216;2023-02-12T03:28:09;10.03;;;5.90;;
13571;SDS011;6857;53.484;10.216;2023-02-12T03:30:58;9.43;;;5.47;;
13571;SDS011;6857;53.484;10.216;2023-02-12T03:33:45;13.40;;;6.67;;
13571;SDS011;6857;53.484;10.216;2023-02-12T03:36:26;8.47;;;5.83;;
13571;SDS011;6857;53.484;10.216;2023-02-12T03:38:58;11.13;;;6.30;;
13571;SDS011;6857;53.484;10.216;2023-02-12T03:42:23;10.77;;;6.53;;
13571;SDS011;6857;53.484;10.216;2023-02-12T03:47:16;14.10;;;8.47;;
13571;SDS011;6857;53.484;10.216;2023-02-12T03:52:24;12.30;;;7.20;;
13571;SDS011;6857;53.484;10.216;2023-02-12T03:54:49;12.37;;;6.47;;
13571;SDS011;6857;53.484;10.216;2023-02-12T03:57:26;13.07;;;6.87;;
13571;SDS011;6857;53.484;10.216;2023-02-12T03:59:58;10.73;;;6.83;;
13571;SDS011;6857;53.484;10.216;2023-02-12T04:02:27;13.27;;;8.77;;
13571;SDS011;6857;53.484;10.216;2023-02-12T04:04:53;16.33;;;9.63;;
13571;SDS011;6857;53.484;10.216;2023-02-12T04:07:18;17.17;;;10.00;;
13571;SDS011;6857;53.484;10.216;2023-02-12T04:09:44;17.13;;;10.30;;
13571;SDS011;6857;53.484;10.216;2023-02-12T04:17:29;17.63;;;9.57;;
13571;SDS011;6857;53.484;10.216;2023-02-12T04:20:20;15.37;;;7.90;;
13571;SDS011;6857;53.484;10.216;2023-02-12T04:26:02;12.13;;;7.53;;
13571;SDS011;6857;53.484;10.216;2023-02-12T04:28:42;15.00;;;7.87;;
13571;SDS011;6857;53.484;10.216;2023-02-12T04:31:29;12.47;;;7.30;;
13571;SDS011;6857;53.484;10.216;2023-02-12T04:34:04;14.50;;;7.00;;
13571;SDS011;6857;53.484;10.216;2023-02-12T04:36:42;13.30;;;6.70;;
13571;SDS011;6857;53.484;10.216;2023-02-12T04:39:17;12.70;;;6.87;;
13571;SDS011;6857;53.484;10.216;2023-02-12T04:41:47;11.83;;;6.87;;
13571;SDS011;6857;53.484;10.216;2023-02-12T04:44:16;13.33;;;6.80;;
13571;SDS011;6857;53.484;10.216;2023-02-12T04:46:46;13.23;;;6.83;;
13571;SDS011;6857;53.484;10.216;2023-02-12T04:49:13;14.20;;;7.23;;
13571;SDS011;6857;53.484;10.216;2023-02-12T04:51:40;14.33;;;7.43;;
13571;SDS011;6857;53.484;10.216;2023-02-12T04:54:06;13.90;;;7.30;;
13571;SDS011;6857;53.484;10.216;2023-02-12T04:56:31;14.87;;;7.77;;
13571;SDS011;6857;53.484;10.216;2023-02-12T04:58:57;13.60;;;7.37;;
13571;SDS011;6857;53.484;10.216;2023-02-12T05:01:23;15.90;;;7.30;;
13571;SDS011;6857;53.484;10.216;2023-02-12T05:03:50;11.23;;;7.00;;
13571;SDS011;6857;53.484;10.216;2023-02-12T05:06:16;11.43;;;6.60;;
13571;SDS011;6857;53.484;10.216;2023-02-12T05:08:42;14.40;;;7.07;;
13571;SDS011;6857;53.484;10.216;2023-02-12T05:11:08;15.33;;;7.37;;
13571;SDS011;6857;53.484;10.216;2023-02-12T05:13:34;11.80;;;7.20;;
13571;SDS011;6857;53.484;10.216;2023-02-12T05:16:03;15.67;;;7.53;;
13571;SDS011;6857;53.484;10.216;2023-02-12T05:18:31;15.97;;;7.57;;
13571;SDS011;6857;53.484;10.216;2023-02-12T05:20:57;16.50;;;9.77;;
13571;SDS011;6857;53.484;10.216;2023-02-12T05:23:25;18.83;;;9.33;;
13571;SDS011;6857;53.484;10.216;2023-02-12T05:25:52;23.17;;;10.90;;
13571;SDS011;6857;53.484;10.216;2023-02-12T05:28:18;23.90;;;11.07;;
13571;SDS011;6857;53.484;10.216;2023-02-12T05:30:44;27.97;;;12.67;;
13571;SDS011;6857;53.484;10.216;2023-02-12T05:33:10;31.17;;;13.63;;
13571;SDS011;6857;53.484;10.216;2023-02-12T05:35:35;37.40;;;14.20;;
13571;SDS011;6857;53.484;10.216;2023-02-12T05:38:01;36.00;;;13.83;;
13571;SDS011;6857;53.484;10.216;2023-02-12T05:40:26;40.93;;;14.87;;
13571;SDS011;6857;53.484;10.216;2023-02-12T05:42:52;49.37;;;15.03;;
13571;SDS011;6857;53.484;10.216;2023-02-12T05:45:17;40.63;;;15.30;;
13571;SDS011;6857;53.484;10.216;2023-02-12T05:47:43;44.53;;;13.60;;
13571;SDS011;6857;53.484;10.216;2023-02-12T05:50:08;51.53;;;14.50;;
13571;SDS011;6857;53.484;10.216;2023-02-12T05:52:34;59.33;;;15.43;;
13571;SDS011;6857;53.484;10.216;2023-02-12T05:55:00;60.13;;;14.77;;
13571;SDS011;6857;53.484;10.216;2023-02-12T05:57:26;60.30;;;14.83;;
13571;SDS011;6857;53.484;10.216;2023-02-12T05:59:51;63.70;;;15.33;;
13571;SDS011;6857;53.484;10.216;2023-02-12T06:02:17;78.90;;;15.53;;
13571;SDS011;6857;53.484;10.216;2023-02-12T06:04:42;66.43;;;16.60;;
13571;SDS011;6857;53.484;10.216;2023-02-12T06:07:08;61.33;;;15.60;;
13571;SDS011;6857;53.484;10.216;2023-02-12T06:09:33;49.60;;;14.23;;
13571;SDS011;6857;53.484;10.216;2023-02-12T06:11:59;68.37;;;15.77;;
13571;SDS011;6857;53.484;10.216;2023-02-12T06:14:25;50.77;;;14.40;;
13571;SDS011;6857;53.484;10.216;2023-02-12T06:16:51;53.50;;;14.67;;
13571;SDS011;6857;53.484;10.216;2023-02-12T06:19:17;48.63;;;14.47;;
13571;SDS011;6857;53.484;10.216;2023-02-12T06:21:43;43.50;;;14.07;;
13571;SDS011;6857;53.484;10.216;2023-02-12T06:24:10;64.97;;;14.37;;
13571;SDS011;6857;53.484;10.216;2023-02-12T06:26:37;52.03;;;14.27;;
13571;SDS011;6857;53.484;10.216;2023-02-12T06:29:02;41.23;;;10.90;;
13571;SDS011;6857;53.484;10.216;2023-02-12T06:31:29;53.33;;;14.60;;
13571;SDS011;6857;53.484;10.216;2023-02-12T06:33:57;43.90;;;12.57;;
13571;SDS011;6857;53.484;10.216;2023-02-12T06:36:25;47.67;;;12.67;;
13571;SDS011;6857;53.484;10.216;2023-02-12T06:38:51;51.50;;;12.83;;
13571;SDS011;6857;53.484;10.216;2023-02-12T06:41:17;45.97;;;11.47;;
13571;SDS011;6857;53.484;10.216;2023-02-12T06:43:43;52.57;;;12.73;;
13571;SDS011;6857;53.484;10.216;2023-02-12T06:46:09;44.80;;;11.90;;
13571;SDS011;6857;53.484;10.216;2023-02-12T06:48:35;55.83;;;12.50;;
13571;SDS011;6857;53.484;10.216;2023-02-12T06:51:08;45.17;;;12.17;;
13571;SDS011;6857;53.484;10.216;2023-02-12T06:53:35;46.53;;;11.60;;
13571;SDS011;6857;53.484;10.216;2023-02-12T06:56:02;50.47;;;11.23;;
13571;SDS011;6857;53.484;10.216;2023-02-12T06:58:29;40.90;;;10.70;;
13571;SDS011;6857;53.484;10.216;2023-02-12T07:00:55;35.07;;;9.97;;
13571;SDS011;6857;53.484;10.216;2023-02-12T07:03:21;26.03;;;9.17;;
13571;SDS011;6857;53.484;10.216;2023-02-12T07:05:47;34.63;;;10.03;;
13571;SDS011;6857;53.484;10.216;2023-02-12T07:08:13;36.07;;;10.40;;
13571;SDS011;6857;53.484;10.216;2023-02-12T07:10:39;33.27;;;9.60;;
13571;SDS011;6857;53.484;10.216;2023-02-12T07:13:05;36.80;;;9.60;;
13571;SDS011;6857;53.484;10.216;2023-02-12T07:15:30;30.97;;;9.87;;
13571;SDS011;6857;53.484;10.216;2023-02-12T07:17:56;38.60;;;9.77;;
13571;SDS011;6857;53.484;10.216;2023-02-12T07:20:21;24.40;;;7.80;;
13571;SDS011;6857;53.484;10.216;2023-02-12T07:22:47;23.20;;;8.33;;
13571;SDS011;6857;53.484;10.216;2023-02-12T07:25:12;34.40;;;8.70;;
13571;SDS011;6857;53.484;10.216;2023-02-12T07:27:38;21.00;;;6.67;;
13571;SDS011;6857;53.484;10.216;2023-02-12T07:30:04;31.50;;;7.70;;
13571;SDS011;6857;53.484;10.216;2023-02-12T07:32:31;22.97;;;7.23;;
13571;SDS011;6857;53.484;10.216;2023-02-12T07:34:59;26.80;;;6.70;;
13571;SDS011;6857;53.484;10.216;2023-02-12T07:37:25;33.57;;;8.17;;
13571;SDS011;6857;53.484;10.216;2023-02-12T07:39:50;26.50;;;7.63;;
13571;SDS011;6857;53.484;10.216;2023-02-12T07:42:16;27.70;;;7.63;;
13571;SDS011;6857;53.484;10.216;2023-02-12T07:44:43;27.17;;;7.77;;
13571;SDS011;6857;53.484;10.216;2023-02-12T07:47:09;18.93;;;6.83;;
13571;SDS011;6857;53.484;10.216;2023-02-12T07:49:35;22.40;;;7.10;;
13571;SDS011;6857;53.484;10.216;2023-02-12T07:52:00;28.83;;;8.37;;
13571;SDS011;6857;53.484;10.216;2023-02-12T07:54:26;24.50;;;7.80;;
13571;SDS011;6857;53.484;10.216;2023-02-12T07:56:51;45.17;;;8.20;;
13571;SDS011;6857;53.484;10.216;2023-02-12T07:59:17;25.90;;;8.33;;
13571;SDS011;6857;53.484;10.216;2023-02-12T08:01:47;27.23;;;8.20;;
13571;SDS011;6857;53.484;10.216;2023-02-12T08:04:15;25.47;;;8.17;;
13571;SDS011;6857;53.484;10.216;2023-02-12T08:06:44;25.33;;;8.00;;
13571;SDS011;6857;53.484;10.216;2023-02-12T08:09:12;25.73;;;8.80;;
13571;SDS011;6857;53.484;10.216;2023-02-12T08:11:40;34.07;;;8.47;;
13571;SDS011;6857;53.484;10.216;2023-02-12T08:14:07;23.80;;;8.60;;
13571;SDS011;6857;53.484;10.216;2023-02-12T08:16:35;30.63;;;10.70;;
13571;SDS011;6857;53.484;10.216;2023-02-12T08:19:02;22.20;;;9.13;;
13571;SDS011;6857;53.484;10.216;2023-02-12T08:21:28;30.10;;;9.50;;
13571;SDS011;6857;53.484;10.216;2023-02-12T08:23:54;26.90;;;10.27;;
13571;SDS011;6857;53.484;10.216;2023-02-12T08:26:21;37.23;;;14.03;;
13571;SDS011;6857;53.484;10.216;2023-02-12T08:28:51;35.33;;;10.07;;
13571;SDS011;6857;53.484;10.216;2023-02-12T08:31:20;29.40;;;10.17;;
13571;SDS011;6857;53.484;10.216;2023-02-12T08:33:53;27.10;;;10.13;;
13571;SDS011;6857;53.484;10.216;2023-02-12T08:36:20;29.80;;;10.67;;
13571;SDS011;6857;53.484;10.216;2023-02-12T08:38:47;33.27;;;11.03;;
13571;SDS011;6857;53.484;10.216;2023-02-12T08:41:17;32.03;;;11.53;;
13571;SDS011;6857;53.484;10.216;2023-02-12T08:43:45;34.47;;;13.90;;
13571;SDS011;6857;53.484;10.216;2023-02-12T08:46:12;32.07;;;12.47;;
13571;SDS011;6857;53.484;10.216;2023-02-12T08:48:39;33.53;;;12.10;;
13571;SDS011;6857;53.484;10.216;2023-02-12T08:53:40;30.57;;;12.83;;
13571;SDS011;6857;53.484;10.216;2023-02-12T08:56:08;34.83;;;12.43;;
13571;SDS011;6857;53.484;10.216;2023-02-12T08:58:34;30.77;;;12.33;;
13571;SDS011;6857;53.484;10.216;2023-02-12T09:01:01;31.20;;;11.87;;
13571;SDS011;6857;53.484;10.216;2023-02-12T09:03:28;33.10;;;12.90;;
13571;SDS011;6857;53.484;10.216;2023-02-12T09:05:53;33.03;;;13.77;;
13571;SDS011;6857;53.484;10.216;2023-02-12T09:08:19;36.30;;;15.63;;
13571;SDS011;6857;53.484;10.216;2023-02-12T09:10:44;32.50;;;12.67;;
13571;SDS011;6857;53.484;10.216;2023-02-12T09:13:11;29.97;;;13.20;;
13571;SDS011;6857;53.484;10.216;2023-02-12T09:15:38;34.00;;;15.87;;
13571;SDS011;6857;53.484;10.216;2023-02-12T09:18:05;28.27;;;12.83;;
13571;SDS011;6857;53.484;10.216;2023-02-12T09:20:31;36.00;;;14.70;;
13571;SDS011;6857;53.484;10.216;2023-02-12T09:22:58;36.37;;;16.30;;
13571;SDS011;6857;53.484;10.216;2023-02-12T09:25:24;27.63;;;13.10;;
13571;SDS011;6857;53.484;10.216;2023-02-12T09:27:49;26.33;;;12.57;;
13571;SDS011;6857;53.484;10.216;2023-02-12T09:30:15;33.13;;;13.83;;
13571;SDS011;6857;53.484;10.216;2023-02-12T09:32:41;29.00;;;13.10;;
13571;SDS011;6857;53.484;10.216;2023-02-12T09:35:06;32.00;;;14.83;;
13571;SDS011;6857;53.484;10.216;2023-02-12T09:37:32;26.30;;;12.57;;
13571;SDS011;6857;53.484;10.216;2023-02-12T09:39:58;26.43;;;12.60;;
13571;SDS011;6857;53.484;10.216;2023-02-12T09:42:32;25.13;;;12.77;;
13571;SDS011;6857;53.484;10.216;2023-02-12T09:52:50;32.73;;;19.60;;
13571;SDS011;6857;53.484;10.216;2023-02-12T09:55:18;26.30;;;14.00;;
13571;SDS011;6857;53.484;10.216;2023-02-12T09:57:45;23.03;;;12.40;;
13571;SDS011;6857;53.484;10.216;2023-02-12T10:00:15;22.93;;;12.83;;
13571;SDS011;6857;53.484;10.216;2023-02-12T10:02:46;26.07;;;14.60;;
13571;SDS011;6857;53.484;10.216;2023-02-12T10:05:19;23.43;;;14.37;;
13571;SDS011;6857;53.484;10.216;2023-02-12T10:12:56;21.03;;;12.63;;
13571;SDS011;6857;53.484;10.216;2023-02-12T10:18:34;21.97;;;13.57;;
13571;SDS011;6857;53.484;10.216;2023-02-12T10:26:34;19.33;;;12.20;;
13571;SDS011;6857;53.484;10.216;2023-02-12T10:29:12;20.33;;;12.20;;
13571;SDS011;6857;53.484;10.216;2023-02-12T10:31:41;18.07;;;11.90;;
13571;SDS011;6857;53.484;10.216;2023-02-12T10:36:47;16.43;;;10.70;;
13571;SDS011;6857;53.484;10.216;2023-02-12T10:39:48;16.30;;;10.77;;
13571;SDS011;6857;53.484;10.216;2023-02-12T10:45:05;17.40;;;10.37;;
13571;SDS011;6857;53.484;10.216;2023-02-12T10:47:37;17.03;;;10.43;;
13571;SDS011;6857;53.484;10.216;2023-02-12T10:50:06;16.37;;;9.67;;
13571;SDS011;6857;53.484;10.216;2023-02-12T10:52:58;15.13;;;9.50;;
13571;SDS011;6857;53.484;10.216;2023-02-12T10:57:58;14.70;;;9.40;;
13571;SDS011;6857;53.484;10.216;2023-02-12T11:00:29;11.57;;;8.10;;
13571;SDS011;6857;53.484;10.216;2023-02-12T11:05:38;11.00;;;7.83;;
13571;SDS011;6857;53.484;10.216;2023-02-12T11:08:06;10.87;;;7.33;;
13571;SDS011;6857;53.484;10.216;2023-02-12T11:10:35;9.53;;;7.00;;
13571;SDS011;6857;53.484;10.216;2023-02-12T11:13:05;12.10;;;8.10;;
13571;SDS011;6857;53.484;10.216;2023-02-12T11:15:49;9.77;;;6.50;;
13571;SDS011;6857;53.484;10.216;2023-02-12T11:18:26;10.57;;;7.57;;
13571;SDS011;6857;53.484;10.216;2023-02-12T11:23:44;12.23;;;8.10;;
13571;SDS011;6857;53.484;10.216;2023-02-12T11:28:53;10.30;;;7.47;;
13571;SDS011;6857;53.484;10.216;2023-02-12T11:31:23;17.30;;;10.60;;
13571;SDS011;6857;53.484;10.216;2023-02-12T11:34:35;10.97;;;7.70;;
13571;SDS011;6857;53.484;10.216;2023-02-12T11:36:54;10.63;;;7.27;;
13571;SDS011;6857;53.484;10.216;2023-02-12T11:39:34;10.63;;;7.27;;
13571;SDS011;6857;53.484;10.216;2023-02-12T11:42:04;12.37;;;7.80;;
13571;SDS011;6857;53.484;10.216;2023-02-12T11:44:39;12.90;;;7.93;;
13571;SDS011;6857;53.484;10.216;2023-02-12T11:47:08;13.10;;;7.57;;
13571;SDS011;6857;53.484;10.216;2023-02-12T11:49:42;10.00;;;6.90;;
13571;SDS011;6857;53.484;10.216;2023-02-12T11:52:18;11.37;;;7.43;;
13571;SDS011;6857;53.484;10.216;2023-02-12T11:54:46;10.37;;;7.00;;
13571;SDS011;6857;53.484;10.216;2023-02-12T12:00:53;12.63;;;7.00;;
13571;SDS011;6857;53.484;10.216;2023-02-12T12:03:27;8.70;;;6.20;;
13571;SDS011;6857;53.484;10.216;2023-02-12T12:06:08;10.40;;;6.63;;
13571;SDS011;6857;53.484;10.216;2023-02-12T12:08:40;14.43;;;8.47;;
13571;SDS011;6857;53.484;10.216;2023-02-12T12:11:13;12.63;;;6.47;;
13571;SDS011;6857;53.484;10.216;2023-02-12T12:13:43;8.80;;;5.67;;
13571;SDS011;6857;53.484;10.216;2023-02-12T12:16:18;9.73;;;6.70;;
13571;SDS011;6857;53.484;10.216;2023-02-12T12:19:16;11.83;;;7.53;;
13571;SDS011;6857;53.484;10.216;2023-02-12T12:22:15;11.00;;;7.63;;
13571;SDS011;6857;53.484;10.216;2023-02-12T12:24:55;11.93;;;7.60;;
13571;SDS011;6857;53.484;10.216;2023-02-12T12:30:47;11.60;;;7.30;;
13571;SDS011;6857;53.484;10.216;2023-02-12T12:33:29;12.33;;;7.40;;
13571;SDS011;6857;53.484;10.216;2023-02-12T12:38:32;10.67;;;6.70;;
13571;SDS011;6857;53.484;10.216;2023-02-12T12:43:50;11.50;;;7.10;;
13571;SDS011;6857;53.484;10.216;2023-02-12T12:46:30;12.70;;;7.47;;
13571;SDS011;6857;53.484;10.216;2023-02-12T12:49:21;10.40;;;7.53;;
13571;SDS011;6857;53.484;10.216;2023-02-12T13:12:31;15.07;;;8.93;;
13571;SDS011;6857;53.484;10.216;2023-02-12T13:26:03;9.13;;;6.00;;
13571;SDS011;6857;53.484;10.216;2023-02-12T13:28:45;8.70;;;6.30;;
13571;SDS011;6857;53.484;10.216;2023-02-12T13:31:34;10.77;;;6.83;;
13571;SDS011;6857;53.484;10.216;2023-02-12T13:34:03;10.40;;;6.40;;
13571;SDS011;6857;53.484;10.216;2023-02-12T13:36:34;9.97;;;5.97;;
13571;SDS011;6857;53.484;10.216;2023-02-12T13:39:22;9.93;;;6.30;;
13571;SDS011;6857;53.484;10.216;2023-02-12T13:42:02;8.53;;;5.90;;
13571;SDS011;6857;53.484;10.216;2023-02-12T13:44:53;9.13;;;5.83;;
13571;SDS011;6857;53.484;10.216;2023-02-12T13:47:28;8.57;;;5.67;;
13571;SDS011;6857;53.484;10.216;2023-02-12T13:52:55;7.70;;;4.80;;
13571;SDS011;6857;53.484;10.216;2023-02-12T13:55:25;7.30;;;4.30;;
13571;SDS011;6857;53.484;10.216;2023-02-12T14:03:14;7.77;;;4.53;;
13571;SDS011;6857;53.484;10.216;2023-02-12T14:05:41;6.90;;;4.53;;
13571;SDS011;6857;53.484;10.216;2023-02-12T14:08:20;6.50;;;4.30;;
13571;SDS011;6857;53.484;10.216;2023-02-12T14:11:03;6.33;;;4.43;;
13571;SDS011;6857;53.484;10.216;2023-02-12T14:13:31;6.57;;;4.87;;
13571;SDS011;6857;53.484;10.216;2023-02-12T14:16:17;7.90;;;5.60;;
13571;SDS011;6857;53.484;10.216;2023-02-12T14:18:43;6.53;;;5.00;;
13571;SDS011;6857;53.484;10.216;2023-02-12T14:23:44;7.80;;;5.40;;
13571;SDS011;6857;53.484;10.216;2023-02-12T14:26:17;6.53;;;4.00;;
13571;SDS011;6857;53.484;10.216;2023-02-12T14:29:00;6.77;;;4.07;;
13571;SDS011;6857;53.484;10.216;2023-02-12T14:31:32;5.87;;;4.10;;
13571;SDS011;6857;53.484;10.216;2023-02-12T14:46:49;4.87;;;3.13;;
13571;SDS011;6857;53.484;10.216;2023-02-12T14:49:26;3.63;;;2.73;;
13571;SDS011;6857;53.484;10.216;2023-02-12T14:52:01;4.70;;;3.73;;
13571;SDS011;6857;53.484;10.216;2023-02-12T14:54:34;5.90;;;3.30;;
13571;SDS011;6857;53.484;10.216;2023-02-12T14:57:04;5.67;;;3.50;;
13571;SDS011;6857;53.484;10.216;2023-02-12T14:59:32;5.50;;;4.53;;
13571;SDS011;6857;53.484;10.216;2023-02-12T15:01:59;5.13;;;3.60;;
13571;SDS011;6857;53.484;10.216;2023-02-12T15:04:29;5.50;;;3.70;;
13571;SDS011;6857;53.484;10.216;2023-02-12T15:09:35;4.77;;;3.00;;
13571;SDS011;6857;53.484;10.216;2023-02-12T15:12:09;9.10;;;3.40;;
13571;SDS011;6857;53.484;10.216;2023-02-12T15:14:46;4.47;;;3.50;;
13571;SDS011;6857;53.484;10.216;2023-02-12T15:17:21;4.83;;;3.70;;
13571;SDS011;6857;53.484;10.216;2023-02-12T15:19:56;4.37;;;3.63;;
13571;SDS011;6857;53.484;10.216;2023-02-12T15:24:52;8.73;;;4.50;;
13571;SDS011;6857;53.484;10.216;2023-02-12T15:27:18;6.73;;;4.70;;
13571;SDS011;6857;53.484;10.216;2023-02-12T15:29:48;7.23;;;5.10;;
13571;SDS011;6857;53.484;10.216;2023-02-12T15:32:18;6.43;;;5.20;;
13571;SDS011;6857;53.484;10.216;2023-02-12T15:34:50;8.70;;;5.87;;
13571;SDS011;6857;53.484;10.216;2023-02-12T15:37:21;9.30;;;5.80;;
13571;SDS011;6857;53.484;10.216;2023-02-12T15:39:53;7.63;;;5.83;;
13571;SDS011;6857;53.484;10.216;2023-02-12T15:42:22;7.90;;;5.47;;
13571;SDS011;6857;53.484;10.216;2023-02-12T15:47:42;6.30;;;5.40;;
13571;SDS011;6857;53.484;10.216;2023-02-12T15:50:16;7.87;;;5.87;;
13571;SDS011;6857;53.484;10.216;2023-02-12T15:52:43;9.63;;;6.93;;
13571;SDS011;6857;53.484;10.216;2023-02-12T15:55:14;9.97;;;6.53;;
13571;SDS011;6857;53.484;10.216;2023-02-12T15:57:42;8.17;;;6.40;;
13571;SDS011;6857;53.484;10.216;2023-02-12T16:00:21;9.70;;;7.03;;
13571;SDS011;6857;53.484;10.216;2023-02-12T16:02:50;11.27;;;6.70;;
13571;SDS011;6857;53.484;10.216;2023-02-12T16:05:17;11.93;;;7.40;;
13571;SDS011;6857;53.484;10.216;2023-02-12T16:07:43;12.67;;;7.67;;
13571;SDS011;6857;53.484;10.216;2023-02-12T16:10:13;13.77;;;7.77;;
13571;SDS011;6857;53.484;10.216;2023-02-12T16:12:39;12.43;;;8.57;;
13571;SDS011;6857;53.484;10.216;2023-02-12T16:15:06;13.07;;;7.93;;
13571;SDS011;6857;53.484;10.216;2023-02-12T16:17:46;14.67;;;8.57;;
13571;SDS011;6857;53.484;10.216;2023-02-12T16:22:44;12.67;;;7.93;;
13571;SDS011;6857;53.484;10.216;2023-02-12T16:25:15;11.83;;;7.73;;
13571;SDS011;6857;53.484;10.216;2023-02-12T16:27:54;13.03;;;8.13;;
13571;SDS011;6857;53.484;10.216;2023-02-12T16:30:38;12.97;;;8.00;;
13571;SDS011;6857;53.484;10.216;2023-02-12T16:38:45;13.83;;;8.37;;
13571;SDS011;6857;53.484;10.216;2023-02-12T16:41:14;13.73;;;8.07;;
13571;SDS011;6857;53.484;10.216;2023-02-12T16:43:43;12.63;;;8.13;;
13571;SDS011;6857;53.484;10.216;2023-02-12T16:46:09;11.80;;;7.60;;
13571;SDS011;6857;53.484;10.216;2023-02-12T16:48:38;10.20;;;7.03;;
13571;SDS011;6857;53.484;10.216;2023-02-12T16:51:05;12.50;;;7.33;;
13571;SDS011;6857;53.484;10.216;2023-02-12T16:53:33;12.63;;;7.53;;
13571;SDS011;6857;53.484;10.216;2023-02-12T16:56:00;9.40;;;6.83;;
13571;SDS011;6857;53.484;10.216;2023-02-12T16:58:27;11.40;;;7.83;;
13571;SDS011;6857;53.484;10.216;2023-02-12T17:00:54;11.23;;;7.73;;
13571;SDS011;6857;53.484;10.216;2023-02-12T17:03:21;12.70;;;8.10;;
13571;SDS011;6857;53.484;10.216;2023-02-12T17:05:47;11.80;;;7.60;;
13571;SDS011;6857;53.484;10.216;2023-02-12T17:08:17;12.07;;;7.60;;
13571;SDS011;6857;53.484;10.216;2023-02-12T17:10:47;11.77;;;7.80;;
13571;SDS011;6857;53.484;10.216;2023-02-12T17:13:13;10.63;;;7.53;;
13571;SDS011;6857;53.484;10.216;2023-02-12T17:15:40;10.47;;;7.50;;
13571;SDS011;6857;53.484;10.216;2023-02-12T17:18:07;11.30;;;8.07;;
13571;SDS011;6857;53.484;10.216;2023-02-12T17:20:35;13.03;;;8.77;;
13571;SDS011;6857;53.484;10.216;2023-02-12T17:23:01;10.13;;;7.53;;
13571;SDS011;6857;53.484;10.216;2023-02-12T17:25:28;11.77;;;7.53;;
13571;SDS011;6857;53.484;10.216;2023-02-12T17:27:54;13.07;;;8.50;;